createdAt,value
2023-04-16T00:00:21.491Z,174.00
2023-04-16T00:01:21.512Z,171.92
2023-04-16T00:02:21.765Z,174.22
2023-04-16T00:03:21.761Z,172.62
2023-04-16T00:04:21.641Z,174.79
2023-04-16T00:05:21.581Z,171.44
2023-04-16T00:06:21.590Z,173.25
2023-04-16T00:07:21.595Z,173.75
2023-04-16T00:08:21.637Z,174.14
2023-04-16T00:09:21.635Z,173.37
2023-04-16T00:10:21.662Z,172.84
2023-04-16T00:11:21.647Z,171.28
2023-04-16T00:12:21.654Z,171.95
2023-04-16T00:13:21.664Z,169.42
2023-04-16T00:14:21.680Z,169.43
2023-04-16T00:15:22.021Z,171.60
2023-04-16T00:16:22.123Z,171.36
2023-04-16T00:17:21.754Z,169.19
2023-04-16T00:18:21.721Z,170.75
2023-04-16T00:19:21.717Z,168.37
2023-04-16T00:20:21.712Z,168.74
2023-04-16T00:21:21.740Z,169.61
2023-04-16T00:22:21.731Z,171.30
2023-04-16T00:23:21.735Z,168.86
2023-04-16T00:24:21.789Z,169.87
2023-04-16T00:25:21.740Z,170.37
2023-04-16T00:26:21.734Z,170.86
2023-04-16T00:27:21.813Z,172.09
2023-04-16T00:28:21.806Z,170.67
2023-04-16T00:29:21.836Z,171.06
2023-04-16T00:30:21.846Z,171.37
2023-04-16T00:31:21.905Z,170.66
2023-04-16T00:32:21.904Z,168.28
2023-04-16T00:33:21.872Z,167.07
2023-04-16T00:34:21.869Z,168.40
2023-04-16T00:35:21.904Z,168.25
2023-04-16T00:36:21.923Z,168.28
2023-04-16T00:37:21.910Z,167.10
2023-04-16T00:38:21.933Z,166.79
2023-04-16T00:39:21.979Z,166.91
2023-04-16T00:40:21.996Z,166.39
2023-04-16T00:41:21.988Z,166.25
2023-04-16T00:42:21.983Z,166.38
2023-04-16T00:43:22.007Z,167.31
2023-04-16T00:44:22.058Z,167.05
2023-04-16T00:45:22.082Z,166.28
2023-04-16T00:46:22.107Z,166.11
2023-04-16T00:47:22.067Z,165.92
2023-04-16T00:48:22.083Z,167.38
2023-04-16T00:49:22.118Z,164.69
2023-04-16T00:50:22.114Z,164.26
2023-04-16T00:51:22.123Z,164.37
2023-04-16T00:52:22.134Z,162.35
2023-04-16T00:53:22.124Z,162.47
2023-04-16T00:54:22.160Z,160.50
2023-04-16T00:55:22.196Z,160.60
2023-04-16T00:56:22.299Z,161.35
2023-04-16T00:57:22.237Z,160.32
2023-04-16T00:58:22.257Z,162.18
2023-04-16T00:59:22.255Z,162.63
2023-04-16T01:00:22.253Z,160.85
2023-04-16T01:01:22.283Z,160.84
2023-04-16T01:02:22.397Z,159.99
2023-04-16T01:03:22.440Z,162.27
2023-04-16T01:04:22.438Z,163.67
2023-04-16T01:05:22.341Z,160.75
2023-04-16T01:06:22.333Z,159.01
2023-04-16T01:07:22.394Z,160.01
2023-04-16T01:08:22.398Z,160.15
2023-04-16T01:09:22.405Z,161.50
2023-04-16T01:10:22.402Z,160.94
2023-04-16T01:11:22.445Z,160.33
2023-04-16T01:12:22.480Z,160.89
2023-04-16T01:13:22.477Z,161.70
2023-04-16T01:14:22.482Z,162.24
2023-04-16T01:15:22.492Z,161.66
2023-04-16T01:16:22.633Z,160.91
2023-04-16T01:17:22.538Z,159.77
2023-04-16T01:18:22.512Z,157.91
2023-04-16T01:19:22.558Z,157.29
2023-04-16T01:20:22.546Z,158.90
2023-04-16T01:21:22.552Z,159.34
2023-04-16T01:22:22.553Z,160.29
2023-04-16T01:23:22.559Z,159.33
2023-04-16T01:24:22.593Z,159.39
2023-04-16T01:25:22.598Z,157.72
2023-04-16T01:26:22.598Z,158.67
2023-04-16T01:27:22.625Z,160.04
2023-04-16T01:28:22.630Z,158.93
2023-04-16T01:29:22.655Z,159.79
2023-04-16T01:30:22.682Z,159.33
2023-04-16T01:31:22.763Z,159.03
2023-04-16T01:32:22.752Z,155.57
2023-04-16T01:33:22.724Z,156.49
2023-04-16T01:34:22.728Z,155.66
2023-04-16T01:35:22.740Z,156.91
2023-04-16T01:36:22.740Z,156.31
2023-04-16T01:37:22.756Z,155.37
2023-04-16T01:38:22.789Z,156.64
2023-04-16T01:39:22.829Z,157.68
2023-04-16T01:40:22.809Z,156.15
2023-04-16T01:41:22.832Z,157.33
2023-04-16T01:42:22.822Z,158.49
2023-04-16T01:43:22.826Z,159.40
2023-04-16T01:44:22.831Z,160.84
2023-04-16T01:45:22.833Z,161.56
2023-04-16T01:46:22.879Z,161.33
2023-04-16T01:47:22.902Z,161.22
2023-04-16T01:48:22.879Z,161.79
2023-04-16T01:49:22.916Z,163.15
2023-04-16T01:50:22.898Z,162.56
2023-04-16T01:51:22.911Z,163.23
2023-04-16T01:52:22.893Z,162.64
2023-04-16T01:53:22.922Z,164.71
2023-04-16T01:54:22.902Z,164.26
2023-04-16T01:55:22.931Z,162.49
2023-04-16T01:56:22.936Z,165.10
2023-04-16T01:57:22.939Z,164.13
2023-04-16T01:58:22.961Z,164.30
2023-04-16T01:59:22.985Z,162.75
2023-04-16T02:00:22.946Z,163.21
2023-04-16T02:01:23.159Z,164.33
2023-04-16T02:02:23.082Z,166.07
2023-04-16T02:03:23.193Z,165.68
2023-04-16T02:04:23.005Z,164.12
2023-04-16T02:05:23.029Z,163.55
2023-04-16T02:06:23.054Z,163.46
2023-04-16T02:07:23.041Z,164.53
2023-04-16T02:08:23.108Z,163.64
2023-04-16T02:09:23.120Z,163.12
2023-04-16T02:10:23.107Z,164.60
2023-04-16T02:11:23.114Z,163.96
2023-04-16T02:12:23.131Z,162.31
2023-04-16T02:13:23.144Z,162.15
2023-04-16T02:14:23.146Z,162.09
2023-04-16T02:15:23.168Z,163.07
2023-04-16T02:16:23.211Z,162.04
2023-04-16T02:17:23.196Z,160.50
2023-04-16T02:18:23.178Z,162.18
2023-04-16T02:19:23.198Z,163.90
2023-04-16T02:20:23.219Z,163.44
2023-04-16T02:21:23.216Z,163.80
2023-04-16T02:22:23.226Z,164.24
2023-04-16T02:23:23.214Z,163.74
2023-04-16T02:24:23.243Z,161.42
2023-04-16T02:25:23.255Z,160.37
2023-04-16T02:26:23.308Z,161.39
2023-04-16T02:27:23.285Z,163.18
2023-04-16T02:28:23.301Z,163.80
2023-04-16T02:29:23.309Z,162.85
2023-04-16T02:30:23.347Z,163.59
2023-04-16T02:31:23.435Z,163.31
2023-04-16T02:32:23.377Z,163.51
2023-04-16T02:33:23.367Z,163.74
2023-04-16T02:34:23.394Z,161.59
2023-04-16T02:35:23.425Z,164.16
2023-04-16T02:36:23.446Z,162.55
2023-04-16T02:37:23.441Z,162.06
2023-04-16T02:38:23.434Z,161.23
2023-04-16T02:39:23.477Z,161.08
2023-04-16T02:40:23.473Z,159.98
2023-04-16T02:41:23.460Z,160.35
2023-04-16T02:42:23.500Z,160.42
2023-04-16T02:43:23.502Z,160.51
2023-04-16T02:44:23.544Z,161.30
2023-04-16T02:45:23.549Z,162.41
2023-04-16T02:46:23.575Z,163.49
2023-04-16T02:47:23.617Z,162.17
2023-04-16T02:48:23.576Z,162.36
2023-04-16T02:49:23.605Z,160.27
2023-04-16T02:50:23.600Z,160.03
2023-04-16T02:51:23.629Z,161.64
2023-04-16T02:52:23.642Z,161.30
2023-04-16T02:53:23.675Z,160.50
2023-04-16T02:54:23.716Z,161.15
2023-04-16T02:55:23.709Z,159.38
2023-04-16T02:56:23.744Z,159.67
2023-04-16T02:57:23.742Z,158.23
2023-04-16T02:58:23.774Z,158.70
2023-04-16T02:59:23.781Z,160.45
2023-04-16T03:00:23.787Z,159.91
2023-04-16T03:01:23.842Z,158.58
2023-04-16T03:02:23.919Z,159.30
2023-04-16T03:03:23.860Z,157.92
2023-04-16T03:04:23.872Z,158.91
2023-04-16T03:05:23.853Z,161.12
2023-04-16T03:06:23.875Z,160.28
2023-04-16T03:07:23.916Z,160.76
2023-04-16T03:08:23.903Z,162.58
2023-04-16T03:09:23.932Z,161.52
2023-04-16T03:10:23.925Z,160.35
2023-04-16T03:11:23.937Z,162.53
2023-04-16T03:12:23.936Z,163.44
2023-04-16T03:13:23.990Z,163.38
2023-04-16T03:14:23.983Z,161.63
2023-04-16T03:15:24.012Z,162.80
2023-04-16T03:16:24.160Z,164.43
2023-04-16T03:17:24.079Z,163.43
2023-04-16T03:18:24.060Z,163.95
2023-04-16T03:19:24.086Z,164.07
2023-04-16T03:20:24.118Z,166.28
2023-04-16T03:21:24.132Z,166.94
2023-04-16T03:22:24.148Z,166.35
2023-04-16T03:23:24.137Z,163.05
2023-04-16T03:24:24.209Z,166.06
2023-04-16T03:25:24.207Z,165.11
2023-04-16T03:26:24.199Z,163.97
2023-04-16T03:27:24.230Z,164.26
2023-04-16T03:28:24.266Z,163.54
2023-04-16T03:29:24.252Z,163.39
2023-04-16T03:30:24.268Z,164.62
2023-04-16T03:31:24.292Z,164.71
2023-04-16T03:32:24.309Z,165.82
2023-04-16T03:33:24.318Z,165.93
2023-04-16T03:34:24.357Z,167.48
2023-04-16T03:35:24.305Z,168.41
2023-04-16T03:36:24.386Z,166.99
2023-04-16T03:37:24.365Z,165.99
2023-04-16T03:38:24.354Z,165.07
2023-04-16T03:39:24.391Z,167.66
2023-04-16T03:40:24.386Z,167.76
2023-04-16T03:41:24.457Z,165.82
2023-04-16T03:42:24.425Z,163.84
2023-04-16T03:43:24.496Z,166.71
2023-04-16T03:44:24.493Z,165.78
2023-04-16T03:45:24.506Z,166.46
2023-04-16T03:46:24.578Z,167.23
2023-04-16T03:47:24.561Z,166.19
2023-04-16T03:48:24.536Z,165.09
2023-04-16T03:49:24.619Z,165.91
2023-04-16T03:50:24.584Z,164.94
2023-04-16T03:51:24.620Z,165.27
2023-04-16T03:52:24.622Z,165.93
2023-04-16T03:53:24.666Z,165.92
2023-04-16T03:54:24.672Z,169.21
2023-04-16T03:55:24.647Z,165.39
2023-04-16T03:56:24.651Z,167.83
2023-04-16T03:57:24.700Z,167.94
2023-04-16T03:58:24.718Z,168.81
2023-04-16T03:59:24.703Z,169.60
2023-04-16T04:00:24.733Z,171.20
2023-04-16T04:01:24.739Z,169.56
2023-04-16T04:02:24.833Z,168.20
2023-04-16T04:03:25.049Z,170.98
2023-04-16T04:04:24.953Z,170.76
2023-04-16T04:05:24.829Z,169.30
2023-04-16T04:06:24.855Z,168.45
2023-04-16T04:07:24.873Z,169.59
2023-04-16T04:08:24.864Z,168.32
2023-04-16T04:09:24.943Z,169.44
2023-04-16T04:10:24.909Z,169.98
2023-04-16T04:11:24.946Z,170.26
2023-04-16T04:12:24.967Z,171.35
2023-04-16T04:13:25.000Z,169.36
2023-04-16T04:14:24.986Z,170.71
2023-04-16T04:15:25.025Z,170.57
2023-04-16T04:16:25.025Z,171.10
2023-04-16T04:17:25.155Z,171.71
2023-04-16T04:18:25.052Z,171.05
2023-04-16T04:19:25.085Z,170.74
2023-04-16T04:20:25.082Z,171.11
2023-04-16T04:21:25.124Z,171.36
2023-04-16T04:22:25.146Z,172.13
2023-04-16T04:23:25.137Z,173.92
2023-04-16T04:24:25.172Z,170.93
2023-04-16T04:25:25.188Z,171.32
2023-04-16T04:26:25.259Z,172.36
2023-04-16T04:27:25.282Z,173.68
2023-04-16T04:28:25.260Z,175.01
2023-04-16T04:29:25.252Z,175.16
2023-04-16T04:30:25.255Z,176.14
2023-04-16T04:31:25.321Z,175.80
2023-04-16T04:32:25.385Z,174.97
2023-04-16T04:33:25.354Z,174.13
2023-04-16T04:34:25.382Z,174.26
2023-04-16T04:35:25.366Z,175.98
2023-04-16T04:36:25.409Z,173.67
2023-04-16T04:37:25.428Z,175.32
2023-04-16T04:38:25.467Z,175.48
2023-04-16T04:39:25.466Z,174.36
2023-04-16T04:40:25.447Z,174.72
2023-04-16T04:41:25.462Z,175.45
2023-04-16T04:42:25.561Z,175.27
2023-04-16T04:43:25.524Z,176.91
2023-04-16T04:44:25.562Z,174.53
2023-04-16T04:45:25.697Z,174.56
2023-04-16T04:46:25.615Z,176.85
2023-04-16T04:47:25.622Z,177.25
2023-04-16T04:48:25.575Z,177.71
2023-04-16T04:49:25.598Z,176.53
2023-04-16T04:50:25.605Z,179.66
2023-04-16T04:51:25.632Z,176.52
2023-04-16T04:52:25.651Z,177.29
2023-04-16T04:53:25.660Z,176.46
2023-04-16T04:54:25.665Z,175.28
2023-04-16T04:55:25.712Z,172.89
2023-04-16T04:56:25.686Z,177.19
2023-04-16T04:57:25.711Z,176.53
2023-04-16T04:58:25.723Z,176.97
2023-04-16T04:59:25.766Z,174.81
2023-04-16T05:00:25.744Z,174.69
2023-04-16T05:01:25.800Z,177.18
2023-04-16T05:02:25.831Z,176.79
2023-04-16T05:03:25.867Z,172.65
2023-04-16T05:04:25.822Z,175.12
2023-04-16T05:05:25.874Z,176.47
2023-04-16T05:06:28.319Z,177.04
2023-04-16T05:07:25.849Z,176.10
2023-04-16T05:08:25.795Z,177.14
2023-04-16T05:09:25.791Z,173.97
2023-04-16T05:10:25.782Z,173.87
2023-04-16T05:11:25.792Z,170.01
2023-04-16T05:12:25.754Z,172.78
2023-04-16T05:13:25.720Z,174.47
2023-04-16T05:14:25.733Z,173.16
2023-04-16T05:15:25.693Z,173.39
2023-04-16T05:16:25.703Z,173.17
2023-04-16T05:17:25.683Z,175.30
2023-04-16T05:18:25.636Z,174.37
2023-04-16T05:19:25.635Z,173.90
2023-04-16T05:20:25.591Z,170.52
2023-04-16T05:21:25.599Z,172.25
2023-04-16T05:22:25.575Z,169.42
2023-04-16T05:23:25.576Z,169.57
2023-04-16T05:24:25.556Z,172.20
2023-04-16T05:25:25.557Z,172.01
2023-04-16T05:26:25.501Z,172.08
2023-04-16T05:27:25.502Z,169.68
2023-04-16T05:28:25.480Z,169.88
2023-04-16T05:29:25.460Z,168.48
2023-04-16T05:30:25.444Z,169.04
2023-04-16T05:31:25.584Z,169.37
2023-04-16T05:32:25.468Z,170.36
2023-04-16T05:33:25.432Z,170.03
2023-04-16T05:34:25.398Z,169.16
2023-04-16T05:35:25.362Z,169.80
2023-04-16T05:36:25.371Z,170.92
2023-04-16T05:37:25.374Z,171.29
2023-04-16T05:38:25.340Z,173.46
2023-04-16T05:39:25.333Z,170.58
2023-04-16T05:40:25.336Z,170.59
2023-04-16T05:41:25.348Z,171.45
2023-04-16T05:42:25.276Z,173.18
2023-04-16T05:43:25.261Z,172.57
2023-04-16T05:44:25.223Z,171.75
2023-04-16T05:45:27.458Z,174.74
2023-04-16T05:46:25.202Z,177.10
2023-04-16T05:47:25.226Z,174.80
2023-04-16T05:48:25.179Z,174.90
2023-04-16T05:49:25.129Z,176.50
2023-04-16T05:50:25.143Z,174.71
2023-04-16T05:51:25.132Z,177.64
2023-04-16T05:52:25.098Z,177.34
2023-04-16T05:53:25.070Z,179.99
2023-04-16T05:54:25.061Z,178.20
2023-04-16T05:55:25.048Z,178.55
2023-04-16T05:56:25.030Z,177.67
2023-04-16T05:57:25.001Z,175.13
2023-04-16T05:58:24.986Z,176.41
2023-04-16T05:59:24.955Z,176.87
2023-04-16T06:00:24.975Z,177.07
2023-04-16T06:01:24.940Z,178.31
2023-04-16T06:02:25.107Z,177.66
2023-04-16T06:03:25.015Z,178.76
2023-04-16T06:04:24.902Z,177.97
2023-04-16T06:05:24.920Z,178.78
2023-04-16T06:06:24.841Z,178.59
2023-04-16T06:07:24.829Z,178.05
2023-04-16T06:08:24.827Z,176.50
2023-04-16T06:09:24.785Z,179.88
2023-04-16T06:10:24.768Z,182.56
2023-04-16T06:11:24.799Z,183.07
2023-04-16T06:12:24.723Z,181.55
2023-04-16T06:13:24.711Z,182.27
2023-04-16T06:14:24.708Z,181.15
2023-04-16T06:15:24.697Z,180.52
2023-04-16T06:16:24.695Z,180.25
2023-04-16T06:17:24.678Z,181.77
2023-04-16T06:18:24.651Z,180.24
2023-04-16T06:19:24.651Z,179.84
2023-04-16T06:20:24.623Z,183.86
2023-04-16T06:21:24.607Z,180.17
2023-04-16T06:22:24.598Z,183.12
2023-04-16T06:23:24.564Z,180.46
2023-04-16T06:24:24.587Z,181.90
2023-04-16T06:25:24.529Z,181.77
2023-04-16T06:26:24.548Z,182.64
2023-04-16T06:27:24.558Z,181.25
2023-04-16T06:28:24.522Z,184.20
2023-04-16T06:29:36.951Z,184.41
2023-04-16T06:30:25.528Z,184.70
2023-04-16T06:31:24.568Z,185.06
2023-04-16T06:32:24.529Z,185.37
2023-04-16T06:33:24.496Z,187.82
2023-04-16T06:34:24.472Z,188.25
2023-04-16T06:35:24.438Z,189.22
2023-04-16T06:36:24.432Z,187.46
2023-04-16T06:37:24.450Z,187.45
2023-04-16T06:38:24.410Z,188.29
2023-04-16T06:39:24.371Z,187.23
2023-04-16T06:40:24.378Z,189.55
2023-04-16T06:41:24.370Z,185.03
2023-04-16T06:42:24.360Z,186.06
2023-04-16T06:43:24.377Z,186.22
2023-04-16T06:44:24.355Z,184.79
2023-04-16T06:45:24.338Z,184.50
2023-04-16T06:46:24.344Z,186.27
2023-04-16T06:47:24.300Z,186.08
2023-04-16T06:48:24.333Z,182.86
2023-04-16T06:49:24.351Z,182.82
2023-04-16T06:50:24.362Z,180.70
2023-04-16T06:51:24.365Z,179.30
2023-04-16T06:52:24.400Z,180.79
2023-04-16T06:53:24.473Z,181.60
2023-04-16T06:54:24.445Z,180.02
2023-04-16T06:55:24.476Z,181.11
2023-04-16T06:56:24.497Z,180.77
2023-04-16T06:57:24.503Z,180.34
2023-04-16T06:58:24.528Z,180.03
2023-04-16T06:59:24.580Z,179.22
2023-04-16T07:00:24.570Z,180.26
2023-04-16T07:01:24.689Z,182.11
2023-04-16T07:02:24.660Z,184.64
2023-04-16T07:03:24.810Z,184.55
2023-04-16T07:04:24.811Z,186.40
2023-04-16T07:05:24.684Z,186.31
2023-04-16T07:06:24.699Z,185.39
2023-04-16T07:07:24.723Z,187.06
2023-04-16T07:08:24.749Z,181.67
2023-04-16T07:09:24.752Z,185.84
2023-04-16T07:10:25.023Z,189.55
2023-04-16T07:11:25.152Z,187.83
2023-04-16T07:12:24.998Z,186.98
2023-04-16T07:13:24.801Z,186.58
2023-04-16T07:14:24.811Z,186.97
2023-04-16T07:15:24.826Z,185.42
2023-04-16T07:16:24.872Z,186.11
2023-04-16T07:17:24.913Z,186.15
2023-04-16T07:18:24.892Z,188.69
2023-04-16T07:19:24.915Z,190.28
2023-04-16T07:20:25.022Z,188.69
2023-04-16T07:21:24.945Z,186.62
2023-04-16T07:22:24.967Z,184.86
2023-04-16T07:23:25.009Z,185.70
2023-04-16T07:24:25.032Z,184.78
2023-04-16T07:25:25.017Z,184.44
2023-04-16T07:26:25.057Z,185.54
2023-04-16T07:27:25.076Z,186.09
2023-04-16T07:28:25.098Z,187.24
2023-04-16T07:29:25.069Z,185.95
2023-04-16T07:30:25.190Z,185.43
2023-04-16T07:31:25.149Z,186.90
2023-04-16T07:32:25.249Z,187.00
2023-04-16T07:33:25.223Z,191.94
2023-04-16T07:34:25.220Z,189.65
2023-04-16T07:35:25.237Z,195.34
2023-04-16T07:36:25.234Z,191.53
2023-04-16T07:37:25.254Z,189.91
2023-04-16T07:38:25.274Z,187.05
2023-04-16T07:39:25.283Z,185.47
2023-04-16T07:40:25.291Z,184.74
2023-04-16T07:41:25.349Z,184.89
2023-04-16T07:42:25.322Z,188.70
2023-04-16T07:43:25.336Z,186.89
2023-04-16T07:44:25.362Z,182.66
2023-04-16T07:45:25.394Z,183.66
2023-04-16T07:46:30.371Z,179.47
2023-04-16T07:47:26.465Z,179.55
2023-04-16T07:48:25.413Z,179.68
2023-04-16T07:49:25.397Z,178.32
2023-04-16T07:50:25.380Z,178.33
2023-04-16T07:51:25.337Z,174.94
2023-04-16T07:52:25.295Z,174.71
2023-04-16T07:53:25.314Z,175.23
2023-04-16T07:54:26.318Z,171.50
2023-04-16T07:55:25.344Z,172.49
2023-04-16T07:56:25.346Z,170.65
2023-04-16T07:57:25.367Z,169.30
2023-04-16T07:58:25.389Z,169.27
2023-04-16T07:59:25.749Z,168.46
2023-04-16T08:00:25.465Z,168.25
2023-04-16T08:01:25.433Z,167.83
2023-04-16T08:02:25.648Z,165.29
2023-04-16T08:03:25.693Z,165.30
2023-04-16T08:04:26.194Z,165.20
2023-04-16T08:05:25.556Z,164.66
2023-04-16T08:06:25.516Z,164.97
2023-04-16T08:07:25.526Z,164.89
2023-04-16T08:08:25.543Z,164.82
2023-04-16T08:09:25.513Z,165.04
2023-04-16T08:10:25.557Z,163.78
2023-04-16T08:11:25.560Z,163.77
2023-04-16T08:12:25.602Z,162.03
2023-04-16T08:13:25.613Z,163.03
2023-04-16T08:14:25.619Z,165.60
2023-04-16T08:15:25.641Z,162.59
2023-04-16T08:16:25.712Z,163.55
2023-04-16T08:17:25.741Z,165.31
2023-04-16T08:18:25.646Z,164.98
2023-04-16T08:19:25.683Z,166.11
2023-04-16T08:20:25.728Z,166.36
2023-04-16T08:21:25.733Z,161.62
2023-04-16T08:22:25.783Z,164.30
2023-04-16T08:23:25.796Z,162.50
2023-04-16T08:24:25.799Z,161.54
2023-04-16T08:25:25.789Z,161.55
2023-04-16T08:26:25.789Z,159.67
2023-04-16T08:27:25.833Z,160.43
2023-04-16T08:28:25.847Z,160.49
2023-04-16T08:29:25.888Z,157.43
2023-04-16T08:30:25.866Z,159.05
2023-04-16T08:31:25.942Z,158.48
2023-04-16T08:32:25.976Z,157.75
2023-04-16T08:33:25.910Z,157.96
2023-04-16T08:34:25.935Z,156.94
2023-04-16T08:35:25.966Z,159.67
2023-04-16T08:36:25.953Z,157.76
2023-04-16T08:37:26.006Z,156.21
2023-04-16T08:38:26.029Z,155.76
2023-04-16T08:39:26.052Z,153.13
2023-04-16T08:40:26.073Z,154.50
2023-04-16T08:41:26.104Z,153.10
2023-04-16T08:42:26.108Z,157.19
2023-04-16T08:43:26.123Z,156.27
2023-04-16T08:44:26.128Z,156.27
2023-04-16T08:45:26.148Z,156.37
2023-04-16T08:46:26.206Z,156.57
2023-04-16T08:47:26.204Z,154.47
2023-04-16T08:48:26.209Z,156.13
2023-04-16T08:49:26.234Z,155.80
2023-04-16T08:50:26.278Z,160.09
2023-04-16T08:51:26.252Z,154.99
2023-04-16T08:52:26.270Z,159.52
2023-04-16T08:53:26.312Z,156.67
2023-04-16T08:54:26.306Z,156.52
2023-04-16T08:55:26.340Z,155.40
2023-04-16T08:56:26.368Z,157.28
2023-04-16T08:57:26.354Z,156.97
2023-04-16T08:58:26.417Z,157.04
2023-04-16T08:59:26.396Z,155.02
2023-04-16T09:00:26.424Z,156.89
2023-04-16T09:01:26.471Z,158.95
2023-04-16T09:02:26.729Z,160.16
2023-04-16T09:03:26.591Z,159.65
2023-04-16T09:04:26.605Z,159.13
2023-04-16T09:05:26.510Z,163.88
2023-04-16T09:06:26.540Z,160.63
2023-04-16T09:07:26.543Z,163.33
2023-04-16T09:08:26.584Z,162.38
2023-04-16T09:09:26.601Z,163.25
2023-04-16T09:10:26.599Z,166.95
2023-04-16T09:11:26.644Z,167.59
2023-04-16T09:12:26.670Z,168.87
2023-04-16T09:13:26.705Z,171.47
2023-04-16T09:14:26.693Z,171.79
2023-04-16T09:15:26.723Z,171.00
2023-04-16T09:16:26.776Z,167.86
2023-04-16T09:17:26.772Z,168.80
2023-04-16T09:18:26.821Z,172.17
2023-04-16T09:19:26.825Z,173.86
2023-04-16T09:20:26.848Z,173.97
2023-04-16T09:21:26.860Z,176.25
2023-04-16T09:22:26.883Z,177.23
2023-04-16T09:23:26.870Z,177.48
2023-04-16T09:24:26.897Z,173.94
2023-04-16T09:25:26.939Z,174.60
2023-04-16T09:26:26.946Z,175.63
2023-04-16T09:27:26.930Z,176.76
2023-04-16T09:28:26.957Z,172.80
2023-04-16T09:29:26.957Z,171.37
2023-04-16T09:30:26.990Z,174.12
2023-04-16T09:31:27.050Z,171.98
2023-04-16T09:32:27.076Z,171.87
2023-04-16T09:33:27.075Z,168.64
2023-04-16T09:34:27.068Z,166.95
2023-04-16T09:35:27.091Z,166.50
2023-04-16T09:36:27.128Z,164.50
2023-04-16T09:37:27.138Z,166.72
2023-04-16T09:38:27.156Z,165.73
2023-04-16T09:39:27.206Z,165.70
2023-04-16T09:40:27.302Z,165.22
2023-04-16T09:41:27.210Z,168.90
2023-04-16T09:42:27.243Z,170.70
2023-04-16T09:43:27.250Z,170.46
2023-04-16T09:44:27.294Z,172.24
2023-04-16T09:45:27.294Z,172.99
2023-04-16T09:46:27.421Z,173.35
2023-04-16T09:47:27.365Z,172.10
2023-04-16T09:48:27.342Z,170.76
2023-04-16T09:49:27.398Z,171.90
2023-04-16T09:50:27.375Z,170.09
2023-04-16T09:51:27.380Z,169.43
2023-04-16T09:52:27.434Z,171.86
2023-04-16T09:53:27.443Z,169.12
2023-04-16T09:54:27.418Z,168.72
2023-04-16T09:55:27.482Z,168.67
2023-04-16T09:56:27.460Z,172.12
2023-04-16T09:57:27.508Z,170.20
2023-04-16T09:58:27.540Z,173.44
2023-04-16T09:59:27.547Z,174.56
2023-04-16T10:00:27.601Z,172.55
2023-04-16T10:01:27.577Z,174.53
2023-04-16T10:02:27.679Z,179.25
2023-04-16T10:03:28.327Z,181.94
2023-04-16T10:04:27.687Z,182.52
2023-04-16T10:05:27.643Z,179.15
2023-04-16T10:06:27.618Z,177.50
2023-04-16T10:07:27.615Z,173.85
2023-04-16T10:08:27.651Z,179.72
2023-04-16T10:09:27.663Z,185.84
2023-04-16T10:10:27.668Z,179.03
2023-04-16T10:11:27.702Z,175.32
2023-04-16T10:12:27.683Z,182.91
2023-04-16T10:13:27.693Z,183.75
2023-04-16T10:14:27.681Z,186.63
2023-04-16T10:15:27.710Z,183.28
2023-04-16T10:16:27.769Z,184.59
2023-04-16T10:17:27.753Z,187.04
2023-04-16T10:18:27.759Z,183.99
2023-04-16T10:19:27.765Z,190.68
2023-04-16T10:20:27.812Z,189.92
2023-04-16T10:21:27.813Z,190.61
2023-04-16T10:22:27.794Z,183.72
2023-04-16T10:23:27.818Z,180.10
2023-04-16T10:24:27.851Z,186.07
2023-04-16T10:25:27.833Z,191.00
2023-04-16T10:26:27.905Z,186.51
2023-04-16T10:27:27.860Z,186.22
2023-04-16T10:28:27.883Z,183.00
2023-04-16T10:29:27.896Z,187.24
2023-04-16T10:30:27.938Z,188.99
2023-04-16T10:31:28.029Z,193.55
2023-04-16T10:32:27.948Z,197.28
2023-04-16T10:33:27.926Z,189.21
2023-04-16T10:34:27.960Z,183.53
2023-04-16T10:35:27.984Z,180.59
2023-04-16T10:36:28.033Z,189.10
2023-04-16T10:37:28.009Z,186.85
2023-04-16T10:38:28.007Z,188.30
2023-04-16T10:39:28.015Z,191.00
2023-04-16T10:40:28.047Z,186.45
2023-04-16T10:41:28.034Z,184.88
2023-04-16T10:42:28.058Z,186.16
2023-04-16T10:43:28.046Z,187.28
2023-04-16T10:44:28.070Z,186.92
2023-04-16T10:45:28.051Z,198.71
2023-04-16T10:46:28.123Z,196.38
2023-04-16T10:47:28.089Z,192.20
2023-04-16T10:48:35.587Z,188.23
2023-04-16T10:49:29.046Z,188.61
2023-04-16T10:50:28.066Z,190.39
2023-04-16T10:51:28.010Z,193.06
2023-04-16T10:52:28.019Z,198.27
2023-04-16T10:53:27.991Z,202.85
2023-04-16T10:54:27.975Z,196.16
2023-04-16T10:55:27.976Z,191.67
2023-04-16T10:56:27.955Z,196.35
2023-04-16T10:57:27.925Z,199.95
2023-04-16T10:58:27.886Z,194.27
2023-04-16T10:59:27.909Z,187.98
2023-04-16T11:00:27.864Z,203.19
2023-04-16T11:01:27.878Z,208.58
2023-04-16T11:02:28.057Z,209.77
2023-04-16T11:03:28.001Z,212.97
2023-04-16T11:04:27.898Z,211.95
2023-04-16T11:05:27.758Z,210.43
2023-04-16T11:06:27.761Z,206.45
2023-04-16T11:07:27.752Z,199.25
2023-04-16T11:08:27.708Z,206.25
2023-04-16T11:09:27.724Z,206.56
2023-04-16T11:10:27.693Z,207.13
2023-04-16T11:11:27.736Z,206.05
2023-04-16T11:12:27.810Z,200.94
2023-04-16T11:13:27.739Z,202.20
2023-04-16T11:14:27.747Z,200.63
2023-04-16T11:15:27.765Z,198.89
2023-04-16T11:16:27.867Z,188.07
2023-04-16T11:17:27.835Z,184.98
2023-04-16T11:18:27.814Z,185.33
2023-04-16T11:19:27.792Z,193.73
2023-04-16T11:20:27.853Z,192.57
2023-04-16T11:21:27.808Z,195.83
2023-04-16T11:22:27.829Z,199.03
2023-04-16T11:23:27.873Z,195.06
2023-04-16T11:24:27.870Z,198.73
2023-04-16T11:25:27.911Z,196.14
2023-04-16T11:26:27.910Z,187.13
2023-04-16T11:27:27.905Z,185.73
2023-04-16T11:28:27.918Z,184.68
2023-04-16T11:29:27.938Z,186.64
2023-04-16T11:30:27.954Z,185.16
2023-04-16T11:31:28.045Z,185.85
2023-04-16T11:32:27.980Z,202.71
2023-04-16T11:33:27.986Z,205.92
2023-04-16T11:34:27.996Z,202.04
2023-04-16T11:35:28.015Z,192.05
2023-04-16T11:36:28.107Z,186.73
2023-04-16T11:37:28.019Z,193.90
2023-04-16T11:38:28.002Z,187.77
2023-04-16T11:39:28.001Z,185.87
2023-04-16T11:40:28.022Z,184.20
2023-04-16T11:41:28.051Z,183.70
2023-04-16T11:42:28.097Z,193.60
2023-04-16T11:43:28.049Z,195.97
2023-04-16T11:44:28.074Z,190.62
2023-04-16T11:45:28.061Z,188.99
2023-04-16T11:46:28.134Z,185.17
2023-04-16T11:47:28.151Z,187.74
2023-04-16T11:48:28.106Z,199.31
2023-04-16T11:49:28.111Z,191.36
2023-04-16T11:50:28.122Z,196.27
2023-04-16T11:51:28.134Z,201.09
2023-04-16T11:52:28.141Z,204.55
2023-04-16T11:53:28.161Z,197.77
2023-04-16T11:54:28.162Z,189.32
2023-04-16T11:55:28.156Z,196.44
2023-04-16T11:56:28.170Z,194.81
2023-04-16T11:57:28.157Z,183.54
2023-04-16T11:58:28.219Z,190.99
2023-04-16T11:59:28.185Z,190.40
2023-04-16T12:00:28.205Z,196.80
2023-04-16T12:01:28.202Z,204.36
2023-04-16T12:02:28.315Z,204.97
2023-04-16T12:03:28.463Z,199.64
2023-04-16T12:04:28.288Z,190.50
2023-04-16T12:05:28.244Z,206.29
2023-04-16T12:06:28.290Z,207.87
2023-04-16T12:07:28.269Z,196.59
2023-04-16T12:08:28.247Z,192.02
2023-04-16T12:09:28.281Z,189.23
2023-04-16T12:10:28.295Z,183.04
2023-04-16T12:11:28.301Z,182.76
2023-04-16T12:12:28.354Z,178.97
2023-04-16T12:13:28.312Z,178.21
2023-04-16T12:14:28.325Z,179.66
2023-04-16T12:15:28.353Z,177.27
2023-04-16T12:16:28.432Z,172.40
2023-04-16T12:17:28.404Z,175.31
2023-04-16T12:18:28.391Z,178.85
2023-04-16T12:19:28.369Z,180.70
2023-04-16T12:20:28.395Z,181.90
2023-04-16T12:21:28.408Z,179.35
2023-04-16T12:22:28.396Z,179.28
2023-04-16T12:23:28.421Z,186.22
2023-04-16T12:24:28.394Z,181.41
2023-04-16T12:25:28.437Z,182.34
2023-04-16T12:26:28.439Z,179.31
2023-04-16T12:27:28.468Z,180.22
2023-04-16T12:28:28.465Z,178.30